Time;durP1;ratioP1;P1;durP2;ratioP2;P2;SDS_P1;SDS_P2;PMS_P1;PMS_P2;Temp;Humidity;BMP_temperature;BMP_pressure;BME280_temperature;BME280_humidity;BME280_pressure;Samples;Min_cycle;Max_cycle;Signal;HPM_P1;HPM_P2
2022/10/05 00:00:15;;;;;;;15.15;8.23;;;;;;;9.23;100.00;154846.66;4919027;29;20046;-78
2022/10/05 00:02:41;;;;;;;13.05;8.00;;;;;;;9.28;100.00;154858.16;4940247;29;20036;-75
2022/10/05 00:05:32;;;;;;;16.02;8.63;;;;;;;9.35;100.00;154877.38;4915639;29;20047;-77
2022/10/05 00:08:09;;;;;;;14.25;8.40;;;;;;;9.35;100.00;154876.13;4938555;29;21323;-78
2022/10/05 00:10:38;;;;;;;12.32;7.97;;;;;;;9.38;100.00;154882.50;4917923;29;20495;-75
2022/10/05 00:13:10;;;;;;;13.95;7.63;;;;;;;9.61;100.00;154940.25;4917524;29;20465;-76
2022/10/05 00:15:35;;;;;;;11.13;7.57;;;;;;;9.57;100.00;154929.94;4926704;29;20035;-77
2022/10/05 00:18:08;;;;;;;11.80;7.30;;;;;;;9.50;100.00;154913.31;4918182;29;20063;-75
2022/10/05 00:20:34;;;;;;;14.90;7.85;;;;;;;9.50;100.00;154913.31;4915113;29;20402;-76
2022/10/05 00:23:03;;;;;;;12.80;7.30;;;;;;;9.43;100.00;154895.34;4917747;29;20055;-75
2022/10/05 00:25:29;;;;;;;23.00;8.48;;;;;;;9.41;100.00;154890.22;4914105;29;20035;-77
2022/10/05 00:27:59;;;;;;;17.30;7.38;;;;;;;9.35;100.00;154876.13;4931335;29;20050;-77
2022/10/05 00:30:31;;;;;;;14.02;8.50;;;;;;;9.32;100.00;154868.41;4902576;29;20046;-78
2022/10/05 00:32:57;;;;;;;14.80;7.70;;;;;;;9.38;100.00;154882.50;4915603;29;20143;-78
2022/10/05 00:35:23;;;;;;;16.42;8.20;;;;;;;9.51;100.00;154917.16;4927080;29;20146;-77
2022/10/05 00:37:53;;;;;;;11.98;7.65;;;;;;;9.54;100.00;154923.56;4915461;29;20046;-78
2022/10/05 00:40:44;;;;;;;19.13;8.43;;;;;;;9.63;100.00;154945.38;4932428;29;20047;-78
2022/10/05 00:43:34;;;;;;;10.07;6.80;;;;;;;9.75;100.00;154977.38;4911393;29;20059;-78
2022/10/05 00:46:13;;;;;;;13.55;7.45;;;;;;;9.84;100.00;154997.94;4912004;29;20043;-76
2022/10/05 00:48:57;;;;;;;14.10;7.47;;;;;;;9.88;100.00;155008.19;4912015;29;20046;-77
2022/10/05 00:51:27;;;;;;;13.70;7.63;;;;;;;10.02;100.00;155042.78;4915330;29;20103;-77
2022/10/05 00:54:01;;;;;;;15.05;7.50;;;;;;;10.01;100.00;155040.25;4916763;29;20482;-77
2022/10/05 00:56:45;;;;;;;11.70;6.55;;;;;;;9.94;100.00;155023.56;4914696;29;20138;-74
2022/10/05 00:59:23;;;;;;;15.85;7.97;;;;;;;10.08;100.00;155059.47;4930546;29;20055;-77
2022/10/05 01:02:14;;;;;;;13.73;7.90;;;;;;;10.05;100.00;155050.50;4900315;29;20044;-76
2022/10/05 01:04:39;;;;;;;16.35;6.97;;;;;;;10.11;100.00;155065.88;4924999;29;20593;-78
2022/10/05 01:07:13;;;;;;;10.55;6.68;;;;;;;10.14;100.00;155074.84;4916116;29;20122;-76
2022/10/05 01:09:47;;;;;;;12.80;7.60;;;;;;;10.05;100.00;155051.75;4927977;29;20854;-78
2022/10/05 01:12:41;;;;;;;13.05;6.97;;;;;;;9.99;100.00;155036.38;4932436;29;20550;-76
2022/10/05 01:15:36;;;;;;;13.45;7.90;;;;;;;9.94;100.00;155024.88;4921804;29;20047;-76
2022/10/05 01:18:11;;;;;;;17.00;7.07;;;;;;;9.91;100.00;155015.88;4870055;29;20058;-76
2022/10/05 01:20:56;;;;;;;17.35;7.45;;;;;;;10.10;100.00;155063.34;4930668;29;20410;-77
2022/10/05 01:23:46;;;;;;;14.23;7.13;;;;;;;10.05;100.00;155051.75;4916455;29;20470;-78
2022/10/05 01:26:27;;;;;;;13.43;7.30;;;;;;;10.08;100.00;155059.47;4906863;29;20039;-77
2022/10/05 01:29:07;;;;;;;13.95;7.68;;;;;;;10.02;100.00;155042.78;4914787;29;20047;-79
2022/10/05 01:31:55;;;;;;;13.38;7.15;;;;;;;10.11;100.00;155065.88;4932581;29;20035;-78
2022/10/05 01:34:34;;;;;;;16.80;7.72;;;;;;;10.09;100.00;155062.03;4900012;29;20102;-79
2022/10/05 01:37:14;;;;;;;11.43;6.90;;;;;;;10.16;100.00;155077.44;4915526;29;20078;-79
2022/10/05 01:39:51;;;;;;;16.83;6.78;;;;;;;10.17;100.00;155081.31;4926231;29;20071;-75
2022/10/05 01:42:31;;;;;;;12.88;6.72;;;;;;;10.10;100.00;155064.59;4901966;29;20115;-77
2022/10/05 01:45:18;;;;;;;17.83;7.60;;;;;;;10.22;100.00;155094.09;4930622;29;20063;-77
2022/10/05 01:47:46;;;;;;;12.20;6.88;;;;;;;10.32;100.00;155119.81;4907622;29;20094;-77
2022/10/05 01:50:29;;;;;;;15.32;7.28;;;;;;;10.48;100.00;155158.31;4900787;29;20053;-75
2022/10/05 01:53:06;;;;;;;13.50;7.20;;;;;;;10.49;100.00;155162.16;4894960;29;20090;-77
2022/10/05 01:55:55;;;;;;;16.77;6.90;;;;;;;10.48;100.00;155158.31;4914705;29;20043;-75
2022/10/05 01:58:51;;;;;;;12.70;6.72;;;;;;;10.46;100.00;155153.16;4918143;29;20036;-77
2022/10/05 02:01:41;;;;;;;13.82;7.32;;;;;;;10.44;100.00;155149.31;4917676;29;20048;-76
2022/10/05 02:04:28;;;;;;;11.73;7.15;;;;;;;10.46;100.00;155154.44;4919216;29;20066;-77
2022/10/05 02:06:55;;;;;;;16.60;7.70;;;;;;;10.40;100.00;155139.06;4924953;29;20048;-76
2022/10/05 02:09:45;;;;;;;9.93;6.88;;;;;;;10.42;100.00;155142.91;4932769;29;20035;-75
2022/10/05 02:12:18;;;;;;;16.05;7.25;;;;;;;10.43;100.00;155145.47;4895545;29;20040;-77
2022/10/05 02:14:49;;;;;;;15.20;7.30;;;;;;;10.50;100.00;155163.44;4929361;29;20070;-75
2022/10/05 02:17:23;;;;;;;15.52;7.28;;;;;;;10.57;100.00;155180.06;4914972;29;20044;-78
2022/10/05 02:20:02;;;;;;;14.07;6.72;;;;;;;10.56;100.00;155178.81;4920349;29;20035;-77
2022/10/05 02:22:37;;;;;;;9.93;6.50;;;;;;;10.60;100.00;155187.78;4909850;29;20039;-77
2022/10/05 02:25:16;;;;;;;13.70;6.57;;;;;;;10.75;100.00;155225.00;4934794;29;20035;-76
2022/10/05 02:27:56;;;;;;;11.27;6.72;;;;;;;10.76;100.00;155227.59;4933092;29;20077;-77
2022/10/05 02:30:23;;;;;;;15.98;6.97;;;;;;;10.76;100.00;155227.59;4921185;29;20039;-76
2022/10/05 02:32:52;;;;;;;11.05;6.35;;;;;;;10.79;100.00;155235.25;4937758;29;20035;-75
2022/10/05 02:35:20;;;;;;;14.05;5.70;;;;;;;10.87;100.00;155255.81;4920047;29;20446;-77
2022/10/05 02:38:23;;;;;;;13.45;6.75;;;;;;;10.86;100.00;155254.50;4919562;29;20066;-80
2022/10/05 02:41:18;;;;;;;12.57;6.18;;;;;;;10.80;100.00;155237.84;4901427;29;20050;-78
2022/10/05 02:44:09;;;;;;;14.75;6.47;;;;;;;10.83;100.00;155245.50;4917633;29;20147;-78
2022/10/05 02:46:45;;;;;;;13.13;6.43;;;;;;;10.84;100.00;155249.38;4921414;29;20047;-75
2022/10/05 02:49:43;;;;;;;9.40;6.43;;;;;;;10.82;100.00;155242.97;4921215;29;20486;-78
2022/10/05 02:52:17;;;;;;;12.23;5.80;;;;;;;10.87;100.00;155257.09;4913761;29;20032;-78
2022/10/05 02:55:09;;;;;;;10.77;6.30;;;;;;;10.85;100.00;155250.66;4914955;29;20055;-76
2022/10/05 02:57:37;;;;;;;9.93;5.88;;;;;;;10.97;100.00;155280.19;4918936;29;20035;-78
2022/10/05 03:00:03;;;;;;;14.25;6.50;;;;;;;11.03;100.00;155296.84;4920531;29;20043;-78
2022/10/05 03:02:40;;;;;;;13.73;5.93;;;;;;;11.02;100.00;155293.00;4921116;29;20115;-77
2022/10/05 03:05:24;;;;;;;14.25;5.82;;;;;;;11.00;100.00;155287.88;4922616;29;20067;-75
2022/10/05 03:08:02;;;;;;;9.63;6.13;;;;;;;10.98;100.00;155282.72;4907539;29;20036;-77
2022/10/05 03:10:38;;;;;;;8.30;6.07;;;;;;;10.92;100.00;155268.63;4921127;29;20608;-77
2022/10/05 03:13:52;;;;;;;9.45;6.30;;;;;;;11.02;100.00;155294.31;4899841;29;20124;-78
2022/10/05 03:16:33;;;;;;;11.40;6.53;;;;;;;11.06;100.00;155304.56;4906061;29;20055;-76
2022/10/05 03:19:10;;;;;;;12.85;6.28;;;;;;;11.01;100.00;155291.72;4920607;29;20031;-78
2022/10/05 03:22:09;;;;;;;8.05;6.40;;;;;;;11.07;100.00;155307.09;4934251;29;20063;-77
2022/10/05 03:24:59;;;;;;;13.57;6.40;;;;;;;11.12;100.00;155318.69;4916422;29;20062;-77
2022/10/05 03:27:58;;;;;;;13.27;6.43;;;;;;;11.05;100.00;155301.97;4935779;29;20066;-79
2022/10/05 03:30:31;;;;;;;8.45;6.05;;;;;;;11.11;100.00;155316.09;4919518;29;20061;-77
2022/10/05 03:33:13;;;;;;;;;;;;;;;11.09;100.00;155310.97;4904228;29;20054;-75
2022/10/05 03:36:02;;;;;;;8.48;6.10;;;;;;;11.08;100.00;155308.44;4920575;29;19926;-77
2022/10/05 03:38:53;;;;;;;12.55;6.07;;;;;;;11.14;100.00;155323.81;4920593;29;20080;-78
2022/10/05 03:41:33;;;;;;;11.20;5.80;;;;;;;11.16;100.00;155327.66;4918721;29;20035;-77
2022/10/05 03:44:16;;;;;;;8.93;5.72;;;;;;;11.14;100.00;155322.53;4919456;29;20046;-74
2022/10/05 03:47:04;;;;;;;11.80;6.72;;;;;;;11.26;100.00;155353.31;4917766;29;20182;-75
2022/10/05 03:49:52;;;;;;;13.52;6.40;;;;;;;11.23;100.00;155345.66;4933958;29;20126;-76
2022/10/05 03:52:37;;;;;;;9.93;6.43;;;;;;;11.27;100.00;155355.91;4934411;29;20039;-78
2022/10/05 03:55:37;;;;;;;11.43;5.50;;;;;;;11.24;100.00;155348.19;4926605;29;20219;-77
2022/10/05 03:58:11;;;;;;;9.23;6.30;;;;;;;11.26;100.00;155353.31;4929349;29;20044;-77
2022/10/05 04:00:40;;;;;;;15.68;6.38;;;;;;;11.22;100.00;155343.06;4920663;29;20031;-78
2022/10/05 04:03:24;;;;;;;12.10;6.18;;;;;;;11.13;100.00;155321.22;4918236;29;20040;-78
2022/10/05 04:05:55;;;;;;;11.57;6.72;;;;;;;11.14;100.00;155322.53;4922767;29;20517;-78
2022/10/05 04:08:36;;;;;;;11.18;6.32;;;;;;;11.18;100.00;155332.81;4938357;29;20094;-77
2022/10/05 04:11:12;;;;;;;11.65;6.25;;;;;;;11.17;100.00;155330.22;4919675;29;20111;-77
2022/10/05 04:13:46;;;;;;;8.50;5.95;;;;;;;11.16;100.00;155327.66;4932323;29;20040;-77
2022/10/05 04:16:21;;;;;;;13.55;6.53;;;;;;;11.21;100.00;155341.78;4921240;29;20043;-78
2022/10/05 04:18:54;;;;;;;11.65;6.30;;;;;;;11.19;100.00;155335.34;4920341;29;20090;-78
2022/10/05 04:21:29;;;;;;;12.50;6.68;;;;;;;11.23;100.00;155345.66;4917865;29;20502;-78
2022/10/05 04:24:14;;;;;;;13.43;6.90;;;;;;;11.18;100.00;155332.81;4927517;29;20122;-75
2022/10/05 04:26:52;;;;;;;17.13;7.15;;;;;;;11.13;100.00;155319.97;4918831;29;20036;-77
2022/10/05 04:29:39;;;;;;;12.80;6.15;;;;;;;11.20;100.00;155339.19;4910869;29;20039;-76
2022/10/05 04:32:14;;;;;;;10.43;6.63;;;;;;;11.13;100.00;155319.97;4918625;29;20044;-76
2022/10/05 04:34:46;;;;;;;14.57;6.88;;;;;;;11.04;100.00;155299.44;4915776;29;20028;-79
2022/10/05 04:37:20;;;;;;;13.93;7.30;;;;;;;11.06;100.00;155303.28;4920286;29;20481;-78
2022/10/05 04:40:08;;;;;;;12.60;7.00;;;;;;;11.08;100.00;155308.44;4903484;29;20031;-77
2022/10/05 04:42:41;;;;;;;11.80;6.75;;;;;;;11.13;100.00;155321.22;4915438;29;20070;-77
2022/10/05 04:45:23;;;;;;;11.85;6.95;;;;;;;11.12;100.00;155318.69;4901136;29;20513;-78
2022/10/05 04:48:28;;;;;;;11.48;7.35;;;;;;;11.27;100.00;155355.91;4902705;29;20126;-78
2022/10/05 04:51:32;;;;;;;13.50;7.00;;;;;;;11.31;100.00;155366.16;4898940;29;20125;-76
2022/10/05 04:54:12;;;;;;;12.77;7.30;;;;;;;11.40;100.00;155388.00;4928499;29;20107;-76
2022/10/05 04:56:44;;;;;;;16.35;7.90;;;;;;;11.50;100.00;155413.66;4910300;29;20118;-78
2022/10/05 04:59:42;;;;;;;16.77;8.10;;;;;;;11.47;100.00;155405.94;4917685;29;20043;-77
2022/10/05 05:02:29;;;;;;;13.13;7.38;;;;;;;11.46;100.00;155403.41;4911619;29;20111;-77
2022/10/05 05:04:58;;;;;;;14.85;7.55;;;;;;;11.46;100.00;155403.41;4920079;29;20051;-77
2022/10/05 05:07:48;;;;;;;14.90;7.40;;;;;;;11.45;100.00;155402.13;4933242;29;20079;-78
2022/10/05 05:10:23;;;;;;;11.32;7.38;;;;;;;11.54;100.00;155422.66;4931232;29;20128;-76
2022/10/05 05:13:04;;;;;;;18.80;7.80;;;;;;;11.45;100.00;155400.81;4935992;29;20395;-78
2022/10/05 05:15:42;;;;;;;16.48;7.88;;;;;;;11.55;100.00;155426.50;4933554;29;20066;-76
2022/10/05 05:18:38;;;;;;;13.60;8.05;;;;;;;11.56;100.00;155427.78;4912287;29;20046;-76
2022/10/05 05:21:42;;;;;;;16.00;8.20;;;;;;;11.54;100.00;155423.91;4903225;29;20466;-76
2022/10/05 05:24:20;;;;;;;10.65;7.63;;;;;;;11.56;100.00;155427.78;4921383;29;20066;-76
2022/10/05 05:27:08;;;;;;;15.35;7.97;;;;;;;11.57;100.00;155430.38;4916216;29;20498;-77
2022/10/05 05:30:05;;;;;;;12.77;8.07;;;;;;;11.45;100.00;155402.13;4937756;29;20063;-76
2022/10/05 05:32:53;;;;;;;13.15;7.88;;;;;;;11.39;100.00;155385.41;4917111;29;20035;-76
2022/10/05 05:35:37;;;;;;;13.65;8.50;;;;;;;11.47;100.00;155405.94;4921101;29;20042;-77
2022/10/05 05:38:11;;;;;;;18.30;8.55;;;;;;;11.56;100.00;155429.06;4924414;29;20490;-79
2022/10/05 05:40:59;;;;;;;14.85;8.70;;;;;;;11.59;100.00;155436.78;4935634;29;20103;-76
2022/10/05 05:43:33;;;;;;;16.83;8.50;;;;;;;11.61;100.00;155440.63;4934769;29;20043;-76
2022/10/05 05:46:05;;;;;;;14.05;7.70;;;;;;;11.52;100.00;155418.78;4905039;29;20039;-76
2022/10/05 05:48:39;;;;;;;14.85;7.57;;;;;;;11.59;100.00;155435.50;4921012;29;20487;-78
2022/10/05 05:51:12;;;;;;;10.90;8.27;;;;;;;11.54;100.00;155422.66;4918139;29;20577;-78
2022/10/05 05:53:45;;;;;;;;;;;;;;;11.55;100.00;155425.25;4933737;29;20036;-77
2022/10/05 05:56:36;;;;;;;15.98;9.27;;;;;;;11.57;100.00;155431.63;4917859;29;20013;-78
2022/10/05 05:59:12;;;;;;;14.23;7.88;;;;;;;11.55;100.00;155425.25;4920655;29;20039;-77
2022/10/05 06:01:44;;;;;;;13.23;8.55;;;;;;;11.57;100.00;155430.38;4935547;29;20521;-75
2022/10/05 06:04:18;;;;;;;14.15;8.85;;;;;;;11.61;100.00;155440.63;4923249;29;20039;-76
2022/10/05 06:06:51;;;;;;;13.75;9.10;;;;;;;11.65;100.00;155450.91;4905046;29;20048;-77
2022/10/05 06:09:20;;;;;;;16.67;8.32;;;;;;;11.56;100.00;155429.06;4928898;29;20430;-76
2022/10/05 06:12:20;;;;;;;15.93;8.60;;;;;;;11.53;100.00;155421.38;4921623;29;20039;-78
2022/10/05 06:14:51;;;;;;;15.43;8.93;;;;;;;11.59;100.00;155436.78;4942536;29;20177;-76
2022/10/05 06:17:36;;;;;;;18.85;9.43;;;;;;;11.58;100.00;155434.19;4922037;29;20506;-75
2022/10/05 06:20:10;;;;;;;14.68;8.95;;;;;;;11.62;100.00;155443.16;4935543;29;20067;-75
2022/10/05 06:22:39;;;;;;;11.43;8.18;;;;;;;11.67;100.00;155457.28;4920188;29;20071;-76
2022/10/05 06:25:12;;;;;;;16.23;8.60;;;;;;;11.71;100.00;155466.28;4934782;29;20039;-77
2022/10/05 06:28:13;;;;;;;15.05;8.45;;;;;;;11.67;100.00;155457.28;4918068;29;20050;-76
2022/10/05 06:31:05;;;;;;;17.13;8.90;;;;;;;11.63;100.00;155445.75;4904798;29;20047;-77
2022/10/05 06:34:13;;;;;;;13.48;8.48;;;;;;;11.75;100.00;155476.53;4921360;29;20497;-76
2022/10/05 06:36:47;;;;;;;14.93;8.10;;;;;;;11.78;100.00;155484.28;4936277;29;20138;-77
2022/10/05 06:39:31;;;;;;;14.70;8.07;;;;;;;11.79;100.00;155486.84;4921952;29;20043;-76
2022/10/05 06:42:36;;;;;;;18.23;9.00;;;;;;;11.73;100.00;155471.41;4933531;29;20469;-78
2022/10/05 06:45:40;;;;;;;16.95;9.07;;;;;;;11.86;100.00;155503.53;4922993;29;20063;-77
2022/10/05 06:48:45;;;;;;;13.77;7.95;;;;;;;11.85;100.00;155502.25;4909867;29;20051;-77
2022/10/05 06:51:37;;;;;;;13.52;8.00;;;;;;;11.93;100.00;155521.56;4918148;29;20052;-76
2022/10/05 06:54:26;;;;;;;12.52;7.93;;;;;;;12.02;100.00;155544.69;4925037;29;20032;-76
2022/10/05 06:57:18;;;;;;;14.48;7.80;;;;;;;12.06;100.00;155554.94;4909248;29;20417;-76
2022/10/05 06:59:50;;;;;;;14.57;7.80;;;;;;;12.05;100.00;155551.06;4918896;29;20027;-76
2022/10/05 07:02:35;;;;;;;13.45;7.85;;;;;;;12.05;100.00;155552.41;4922783;29;20058;-76
2022/10/05 07:05:18;;;;;;;15.68;8.20;;;;;;;12.21;100.00;155592.19;4922832;29;20047;-77
2022/10/05 07:07:54;;;;;;;13.55;7.32;;;;;;;12.21;100.00;155592.19;4934662;29;20514;-77
2022/10/05 07:10:46;;;;;;;12.65;7.50;;;;;;;12.23;100.00;155597.31;4907741;29;20069;-76
2022/10/05 07:13:50;;;;;;;11.40;7.68;;;;;;;12.33;100.00;155620.44;4926347;29;20051;-76
2022/10/05 07:16:28;;;;;;;15.25;7.63;;;;;;;12.31;100.00;155616.56;4922947;29;20095;-77
2022/10/05 07:19:04;;;;;;;15.25;8.13;;;;;;;12.40;100.00;155638.44;4936950;29;20387;-79
2022/10/05 07:21:50;;;;;;;14.65;8.13;;;;;;;12.45;100.00;155652.56;4907114;29;20072;-76
2022/10/05 07:24:30;;;;;;;10.93;7.47;;;;;;;12.46;100.00;155655.09;4937472;29;20056;-78
2022/10/05 07:27:15;;;;;;;12.50;7.35;;;;;;;12.51;100.00;155665.38;4934690;29;20040;-78
2022/10/05 07:29:48;;;;;;;10.73;7.00;;;;;;;12.55;100.00;155675.69;4940936;29;20032;-76
2022/10/05 07:32:31;;;;;;;;;;;;;;;12.66;100.00;155705.22;4924971;29;20052;-77
2022/10/05 07:38:15;;;;;;;10.98;7.32;;;;;;;12.75;100.00;155727.06;4935431;29;20111;-77
2022/10/05 07:40:51;;;;;;;9.32;7.40;;;;;;;12.77;100.00;155730.88;4908459;29;20054;-75
2022/10/05 07:44:05;;;;;;;13.18;6.97;;;;;;;12.93;100.00;155770.75;4920902;29;20036;-78
2022/10/05 07:47:08;;;;;;;13.80;6.85;;;;;;;12.92;100.00;155768.16;4918815;29;20044;-75
2022/10/05 07:49:50;;;;;;;16.65;7.50;;;;;;;13.00;100.00;155788.75;4886776;29;20525;-78
2022/10/05 07:52:24;;;;;;;12.90;6.78;;;;;;;13.03;100.00;155796.41;4949833;29;20271;-78
2022/10/05 07:55:19;;;;;;;15.38;7.60;;;;;;;12.98;100.00;155784.88;4938702;29;20032;-77
2022/10/05 07:58:17;;;;;;;11.23;6.50;;;;;;;13.03;100.00;155797.75;4923438;29;20047;-77
2022/10/05 08:01:03;;;;;;;11.13;6.18;;;;;;;13.07;100.00;155805.41;4902252;29;20430;-76
2022/10/05 08:03:55;;;;;;;8.80;6.95;;;;;;;13.09;100.00;155811.88;4921105;29;20139;-77
2022/10/05 08:06:29;;;;;;;11.30;6.55;;;;;;;13.11;100.00;155815.69;4938594;28;20066;-78
2022/10/05 08:09:03;;;;;;;14.15;6.60;;;;;;;13.11;100.00;155815.69;4921263;29;20102;-76
2022/10/05 08:11:38;;;;;;;12.15;6.50;;;;;;;13.09;100.00;155810.56;4907225;29;20044;-78
2022/10/05 08:14:15;;;;;;;12.93;6.57;;;;;;;13.23;100.00;155846.56;4924216;29;20039;-78
2022/10/05 08:16:45;;;;;;;10.48;6.75;;;;;;;13.32;100.00;155869.75;4916936;29;20035;-77
2022/10/05 08:19:39;;;;;;;9.80;6.38;;;;;;;13.48;100.00;155909.56;4922111;29;20091;-76
2022/10/05 08:22:11;;;;;;;9.88;6.53;;;;;;;13.56;100.00;155930.16;4908717;29;20035;-78
2022/10/05 08:24:43;;;;;;;;;;;;;;;13.66;100.00;155954.56;4935035;29;20040;-78
2022/10/05 08:27:18;;;;;;;11.68;6.18;;;;;;;13.77;100.00;155981.56;4938355;29;19957;-77
2022/10/05 08:30:00;;;;;;;11.70;6.93;;;;;;;13.76;100.00;155978.97;4934888;29;20031;-78
2022/10/05 08:32:55;;;;;;;15.18;7.32;;;;;;;13.80;100.00;155989.25;4924339;29;20050;-78
2022/10/05 08:35:39;;;;;;;12.43;7.28;;;;;;;13.82;100.00;155995.72;4919891;29;20040;-76
2022/10/05 08:38:30;;;;;;;12.40;7.00;;;;;;;13.83;100.00;155997.00;4904435;29;20035;-77
2022/10/05 08:41:26;;;;;;;7.57;6.40;;;;;;;13.85;100.00;156000.84;4919126;29;20047;-78
2022/10/05 08:44:01;;;;;;;12.60;6.82;;;;;;;13.83;100.00;155997.00;4939982;29;20067;-79
2022/10/05 08:47:12;;;;;;;16.77;6.43;;;;;;;13.87;100.00;156007.25;4922170;29;20047;-76
2022/10/05 08:49:56;;;;;;;11.73;6.63;;;;;;;13.93;100.00;156022.69;4937029;29;20031;-78
2022/10/05 08:52:35;;;;;;;9.20;6.55;;;;;;;13.97;100.00;156032.94;4906584;29;20070;-79
2022/10/05 08:55:25;;;;;;;12.30;6.53;;;;;;;14.08;100.00;156059.97;4922639;29;20039;-77
2022/10/05 08:58:30;;;;;;;9.18;6.53;;;;;;;14.18;100.00;156085.72;4943552;29;20649;-80
2022/10/05 09:01:20;;;;;;;9.30;5.93;;;;;;;14.33;100.00;156121.69;4919184;29;20077;-78
2022/10/05 09:04:04;;;;;;;11.23;6.40;;;;;;;14.33;100.00;156121.69;4939049;29;20071;-79
2022/10/05 09:06:57;;;;;;;12.55;6.22;;;;;;;14.29;100.00;156111.41;4943341;29;20047;-78
2022/10/05 09:09:52;;;;;;;8.13;6.45;;;;;;;14.25;100.00;156101.13;4925008;29;20513;-80
2022/10/05 09:12:55;;;;;;;12.35;6.45;;;;;;;14.28;100.00;156110.13;4905340;29;20521;-78
2022/10/05 09:15:40;;;;;;;8.85;6.15;;;;;;;14.39;100.00;156137.09;4927029;29;20511;-77
2022/10/05 09:18:38;;;;;;;9.77;5.20;;;;;;;14.49;100.00;156162.84;4910362;29;20046;-79
2022/10/05 09:21:40;;;;;;;9.80;5.50;;;;;;;14.66;100.00;156205.34;4907004;29;20095;-79
2022/10/05 09:24:26;;;;;;;13.82;5.57;;;;;;;14.66;100.00;156205.34;4925895;29;20040;-78
2022/10/05 09:27:10;;;;;;;10.95;5.80;;;;;;;14.64;100.00;156198.94;4938088;29;20031;-79
2022/10/05 09:30:04;;;;;;;10.75;5.82;;;;;;;14.78;100.00;156234.91;4916821;29;20048;-80
2022/10/05 09:32:51;;;;;;;8.43;5.30;;;;;;;14.83;100.00;156247.78;4940743;29;20078;-79
2022/10/05 09:35:35;;;;;;;7.75;5.03;;;;;;;14.83;100.00;156247.78;4922440;29;20062;-77
2022/10/05 09:38:26;;;;;;;7.30;5.25;;;;;;;14.81;100.00;156241.38;4902207;29;20727;-79
2022/10/05 09:41:29;;;;;;;6.32;4.10;;;;;;;14.91;100.00;156268.34;4920638;29;20550;-78
2022/10/05 09:44:17;;;;;;;5.28;4.25;;;;;;;14.96;100.00;156279.97;4905966;29;20061;-79
2022/10/05 09:46:47;;;;;;;8.27;3.92;;;;;;;14.91;100.00;156267.06;4924751;29;20414;-79
2022/10/05 09:49:34;;;;;;;8.63;4.28;;;;;;;14.89;100.00;156263.22;4924206;29;20088;-79
2022/10/05 09:52:40;;;;;;;7.22;3.75;;;;;;;14.90;100.00;156265.81;4931496;29;20035;-76
2022/10/05 09:55:22;;;;;;;4.45;3.78;;;;;;;14.96;100.00;156279.97;4949540;29;20044;-81
2022/10/05 09:58:27;;;;;;;8.10;3.80;;;;;;;14.89;100.00;156261.94;4930129;29;20047;-80
2022/10/05 10:01:14;;;;;;;6.68;4.20;;;;;;;14.84;100.00;156250.34;4918292;29;20036;-77
2022/10/05 10:04:17;;;;;;;5.25;4.13;;;;;;;14.59;100.00;156187.31;4927626;29;20036;-78
2022/10/05 10:07:03;;;;;;;;;;;;;;;14.60;100.00;156189.91;4950554;29;20032;-76
2022/10/05 10:10:12;;;;;;;6.32;3.80;;;;;;;14.67;100.00;156207.88;4916773;29;19962;-77
2022/10/05 10:12:57;;;;;;;4.97;3.85;;;;;;;14.61;100.00;156192.47;4950659;29;20486;-78
2022/10/05 10:15:56;;;;;;;6.28;4.20;;;;;;;14.64;100.00;156200.19;4946487;29;20549;-81
2022/10/05 10:18:40;;;;;;;6.95;4.15;;;;;;;14.65;100.00;156201.47;4926966;29;20058;-81
2022/10/05 10:21:41;;;;;;;7.60;4.20;;;;;;;14.71;100.00;156218.22;4934388;29;20067;-78
2022/10/05 10:24:28;;;;;;;5.63;4.20;;;;;;;14.81;100.00;156242.66;4935573;29;20044;-77
2022/10/05 10:27:31;;;;;;;5.60;3.80;;;;;;;14.83;100.00;156246.50;4924138;29;20043;-80
2022/10/05 10:30:02;;;;;;;4.70;3.72;;;;;;;15.04;100.00;156300.53;4909131;29;20496;-80
2022/10/05 10:32:55;;;;;;;8.43;4.20;;;;;;;15.06;100.00;156304.38;4954611;29;20063;-75
2022/10/05 10:35:27;;;;;;;5.78;4.10;;;;;;;15.05;100.00;156301.78;4971955;29;20075;-74
2022/10/05 10:38:07;;;;;;;10.25;4.72;;;;;;;15.04;100.00;156299.25;4941690;29;20027;-76
2022/10/05 10:41:19;;;;;;;6.50;4.47;;;;;;;15.01;100.00;156292.78;4948830;29;20142;-80
2022/10/05 10:44:06;;;;;;;5.70;4.20;;;;;;;14.97;100.00;156282.50;4922710;29;20048;-79
2022/10/05 10:46:58;;;;;;;6.85;4.00;;;;;;;14.93;100.00;156273.50;4919845;29;20039;-77
2022/10/05 10:49:40;;;;;;;7.25;4.28;;;;;;;14.87;100.00;156256.78;4919159;29;20039;-78
2022/10/05 10:52:31;;;;;;;8.80;4.50;;;;;;;14.81;100.00;156242.66;4903931;29;20044;-80
2022/10/05 10:55:14;;;;;;;11.38;4.20;;;;;;;14.81;100.00;156242.66;4930116;29;20028;-78
2022/10/05 10:58:01;;;;;;;8.15;4.50;;;;;;;14.75;100.00;156227.22;4910743;29;20039;-79
2022/10/05 11:00:59;;;;;;;8.32;4.32;;;;;;;14.77;100.00;156233.63;4901330;29;20050;-78
2022/10/05 11:03:54;;;;;;;7.72;4.07;;;;;;;14.73;100.00;156223.34;4901875;29;20043;-78
2022/10/05 11:06:47;;;;;;;7.38;4.28;;;;;;;14.78;100.00;156234.91;4915575;29;20044;-79
2022/10/05 11:09:49;;;;;;;6.63;4.40;;;;;;;14.66;100.00;156204.06;4930118;29;20130;-81
2022/10/05 11:12:36;;;;;;;6.32;4.43;;;;;;;14.67;100.00;156207.88;4910048;29;20134;-79
2022/10/05 11:15:17;;;;;;;10.40;4.55;;;;;;;14.57;100.00;156183.47;4902230;29;20130;-78
2022/10/05 11:18:05;;;;;;;9.20;4.82;;;;;;;14.59;100.00;156188.59;4913407;29;20489;-79
2022/10/05 11:21:04;;;;;;;9.43;4.70;;;;;;;14.63;100.00;156196.34;4914195;29;20039;-77
2022/10/05 11:24:14;;;;;;;4.93;4.30;;;;;;;14.63;100.00;156196.34;4916562;29;20059;-77
2022/10/05 11:27:08;;;;;;;7.45;4.13;;;;;;;14.74;100.00;156225.91;4913060;29;20088;-76
2022/10/05 11:29:46;;;;;;;7.70;4.10;;;;;;;14.71;100.00;156218.22;4915740;29;20051;-76
2022/10/05 11:32:33;;;;;;;6.43;3.83;;;;;;;14.79;100.00;156237.50;4916904;29;20220;-76
2022/10/05 11:35:24;;;;;;;6.78;3.75;;;;;;;14.82;100.00;156245.19;4930278;29;20036;-76
2022/10/05 11:38:16;;;;;;;7.13;3.92;;;;;;;14.87;100.00;156256.78;4947653;29;20036;-77
2022/10/05 11:41:01;;;;;;;5.68;3.60;;;;;;;14.87;100.00;156256.78;4927489;29;20405;-77
2022/10/05 11:43:32;;;;;;;5.63;3.88;;;;;;;15.00;100.00;156290.25;4914034;29;20189;-77
2022/10/05 11:46:18;;;;;;;6.88;3.60;;;;;;;14.94;100.00;156276.09;4919261;29;20040;-77
2022/10/05 11:48:54;;;;;;;7.32;3.67;;;;;;;15.01;100.00;156292.78;4911577;29;20803;-77
2022/10/05 11:51:47;;;;;;;5.68;3.58;;;;;;;15.04;100.00;156299.25;4914646;29;20047;-76
2022/10/05 11:54:51;;;;;;;4.32;3.25;;;;;;;15.07;100.00;156308.25;4931012;29;20777;-77
2022/10/05 11:57:54;;;;;;;4.80;2.70;;;;;;;15.07;100.00;156308.25;4916043;29;20050;-78
2022/10/05 12:00:31;;;;;;;5.95;3.08;;;;;;;15.11;100.00;156317.28;4924619;29;20620;-77
2022/10/05 12:03:15;;;;;;;4.93;2.88;;;;;;;15.21;100.00;156341.72;4932985;29;20047;-76
2022/10/05 12:06:08;;;;;;;4.30;3.25;;;;;;;15.28;100.00;156361.00;4916758;29;20079;-77
2022/10/05 12:08:39;;;;;;;;;;;;;;;15.26;100.00;156354.59;4917091;29;20035;-77
2022/10/05 12:11:24;;;;;;;4.47;2.45;;;;;;;15.41;100.00;156391.84;4917743;29;19915;-79
2022/10/05 12:14:02;;;;;;;3.33;2.25;;;;;;;15.48;100.00;156411.19;4912620;29;20101;-76
2022/10/05 12:16:38;;;;;;;7.03;2.83;;;;;;;15.65;100.00;156453.66;4916034;29;20039;-77
2022/10/05 12:19:44;;;;;;;3.17;2.40;;;;;;;15.90;100.00;156516.75;4916302;29;20035;-77
2022/10/05 12:22:16;;;;;;;8.80;2.78;;;;;;;16.07;100.00;156557.97;4906997;29;20086;-77
2022/10/05 12:25:03;;;;;;;5.35;2.88;;;;;;;16.29;99.77;156614.59;4932348;29;20036;-78
2022/10/05 12:27:52;;;;;;;5.70;2.50;;;;;;;16.11;98.18;156569.53;4905318;29;20048;-76
2022/10/05 12:30:28;;;;;;;5.05;2.53;;;;;;;16.08;99.81;156560.50;4913859;29;20058;-77
2022/10/05 12:33:15;;;;;;;4.28;2.33;;;;;;;16.17;100.00;156583.69;4900499;29;20617;-78